createdAt,value
2022-08-16T00:02:00.033Z,5.25
2022-08-16T00:04:31.244Z,4.68
2022-08-16T00:07:01.606Z,5.38
2022-08-16T00:09:33.421Z,5.15
2022-08-16T00:12:07.619Z,4.95
2022-08-16T00:14:38.562Z,5.07
2022-08-16T00:17:18.533Z,5.22
2022-08-16T00:19:53.765Z,5.05
2022-08-16T00:22:25.686Z,5.40
2022-08-16T00:24:58.594Z,5.22
2022-08-16T00:27:30.856Z,5.07
2022-08-16T00:30:19.148Z,5.53
2022-08-16T00:32:57.115Z,4.53
2022-08-16T00:35:34.888Z,4.78
2022-08-16T00:38:40.185Z,6.05
2022-08-16T00:40:58.475Z,5.05
2022-08-16T00:43:42.583Z,4.93
2022-08-16T00:46:34.365Z,5.40
2022-08-16T00:52:50.467Z,5.30
2022-08-16T00:55:22.917Z,5.30
2022-08-16T00:57:59.903Z,5.72
2022-08-16T01:00:33.928Z,6.13
2022-08-16T01:03:11.719Z,6.25
2022-08-16T01:05:44.171Z,6.85
2022-08-16T01:08:36.249Z,6.57
2022-08-16T01:11:08.945Z,6.53
2022-08-16T01:13:41.635Z,6.95
2022-08-16T01:16:20.083Z,6.72
2022-08-16T01:18:57.162Z,7.55
2022-08-16T01:21:39.793Z,7.05
2022-08-16T01:24:53.722Z,7.00
2022-08-16T01:27:29.272Z,6.18
2022-08-16T01:30:04.305Z,6.70
2022-08-16T01:32:38.992Z,6.93
2022-08-16T01:35:17.642Z,6.10
2022-08-16T01:37:54.089Z,6.88
2022-08-16T01:40:31.687Z,6.68
2022-08-16T01:43:01.852Z,7.13
2022-08-16T01:45:39.828Z,6.50
2022-08-16T01:48:19.619Z,6.57
2022-08-16T01:51:07.955Z,5.80
2022-08-16T01:53:40.603Z,7.55
2022-08-16T01:56:24.748Z,7.00
2022-08-16T01:58:58.772Z,6.88
2022-08-16T02:01:29.887Z,6.88
2022-08-16T02:04:10.868Z,6.68
2022-08-16T02:06:46.630Z,7.38
2022-08-16T02:09:18.582Z,7.63
2022-08-16T02:11:54.106Z,7.40
2022-08-16T02:14:27.461Z,7.85
2022-08-16T02:16:58.846Z,7.10
2022-08-16T02:19:59.305Z,6.32
2022-08-16T02:22:34.735Z,6.50
2022-08-16T02:25:14.822Z,6.63
2022-08-16T02:27:50.889Z,6.30
2022-08-16T02:30:35.985Z,7.28
2022-08-16T02:33:15.453Z,6.88
2022-08-16T02:35:53.854Z,6.78
2022-08-16T02:40:59.029Z,6.95
2022-08-16T02:43:34.062Z,7.15
2022-08-16T02:46:07.636Z,7.15
2022-08-16T02:48:49.075Z,7.63
2022-08-16T02:51:23.420Z,7.40
2022-08-16T02:53:54.705Z,6.18
2022-08-16T02:56:32.128Z,7.05
2022-08-16T02:59:11.615Z,7.07
2022-08-16T03:01:44.899Z,7.33
2022-08-16T03:04:41.185Z,7.00
2022-08-16T03:07:06.440Z,6.85
2022-08-16T03:09:36.867Z,6.68
2022-08-16T03:12:08.802Z,6.85
2022-08-16T03:14:40.789Z,7.07
2022-08-16T03:17:12.502Z,7.40
2022-08-16T03:19:47.877Z,6.95
2022-08-16T03:22:30.902Z,6.85
2022-08-16T03:25:03.213Z,6.68
2022-08-16T03:27:34.820Z,6.88
2022-08-16T03:30:15.974Z,7.35
2022-08-16T03:32:51.943Z,6.28
2022-08-16T03:35:32.994Z,6.20
2022-08-16T03:38:32.587Z,6.35
2022-08-16T03:40:57.785Z,6.03
2022-08-16T03:43:50.616Z,6.10
2022-08-16T03:46:44.894Z,6.45
2022-08-16T03:49:13.247Z,5.95
2022-08-16T03:53:43.195Z,5.97
2022-08-16T03:56:20.047Z,6.10
2022-08-16T03:58:52.500Z,6.40
2022-08-16T04:01:24.026Z,5.50
2022-08-16T04:03:59.702Z,5.95
2022-08-16T04:06:31.010Z,6.65
2022-08-16T04:09:02.429Z,5.88
2022-08-16T04:11:36.708Z,7.03
2022-08-16T04:14:32.557Z,6.13
2022-08-16T04:16:58.122Z,6.35
2022-08-16T04:19:31.709Z,7.05
2022-08-16T04:22:02.345Z,5.10
2022-08-16T04:24:40.619Z,5.20
2022-08-16T04:27:11.022Z,5.15
2022-08-16T04:29:44.150Z,5.97
2022-08-16T04:32:16.682Z,5.57
2022-08-16T04:34:50.126Z,6.82
2022-08-16T04:37:21.955Z,7.13
2022-08-16T04:39:55.292Z,6.03
2022-08-16T04:42:29.823Z,7.50
2022-08-16T04:45:07.305Z,7.13
2022-08-16T04:47:37.925Z,6.22
2022-08-16T04:50:14.522Z,6.95
2022-08-16T04:52:48.040Z,6.10
2022-08-16T04:55:31.846Z,5.95
2022-08-16T04:58:44.781Z,6.25
2022-08-16T05:01:01.108Z,7.40
2022-08-16T05:03:32.583Z,6.22
2022-08-16T05:06:05.204Z,6.22
2022-08-16T05:08:39.441Z,6.90
2022-08-16T05:11:20.583Z,7.03
2022-08-16T05:13:51.914Z,6.68
2022-08-16T05:16:27.448Z,7.18
2022-08-16T05:19:03.503Z,6.95
2022-08-16T05:21:38.388Z,7.15
2022-08-16T05:24:09.729Z,7.68
2022-08-16T05:26:43.519Z,7.38
2022-08-16T05:29:21.467Z,7.17
2022-08-16T05:31:52.922Z,7.85
2022-08-16T05:34:23.403Z,7.13
2022-08-16T05:36:58.686Z,7.30
2022-08-16T05:39:30.528Z,7.10
2022-08-16T05:42:05.068Z,6.75
2022-08-16T05:44:35.683Z,6.53
2022-08-16T05:47:06.006Z,7.75
2022-08-16T05:49:39.861Z,6.85
2022-08-16T05:52:13.485Z,7.97
2022-08-16T05:55:00.927Z,6.80
2022-08-16T05:57:34.496Z,6.53
2022-08-16T06:00:10.481Z,6.68
2022-08-16T06:02:40.690Z,6.70
2022-08-16T06:05:11.971Z,6.55
2022-08-16T06:07:44.702Z,6.50
2022-08-16T06:10:32.242Z,6.65
2022-08-16T06:13:04.869Z,6.25
2022-08-16T06:15:35.365Z,7.40
2022-08-16T06:18:07.026Z,6.75
2022-08-16T06:20:37.669Z,6.72
2022-08-16T06:23:27.806Z,6.82
2022-08-16T06:26:02.622Z,6.38
2022-08-16T06:28:39.182Z,5.82
2022-08-16T06:31:12.333Z,4.90
2022-08-16T06:33:44.646Z,6.45
2022-08-16T06:36:17.320Z,5.45
2022-08-16T06:38:56.085Z,5.75
2022-08-16T06:41:27.538Z,4.90
2022-08-16T06:43:59.314Z,5.60
2022-08-16T06:46:34.647Z,5.63
2022-08-16T06:49:10.806Z,4.63
2022-08-16T06:53:41.823Z,5.60
2022-08-16T06:56:14.206Z,5.03
2022-08-16T06:58:54.985Z,5.67
2022-08-16T07:01:44.997Z,5.00
2022-08-16T07:04:31.649Z,5.15
2022-08-16T07:07:02.952Z,4.72
2022-08-16T07:09:34.903Z,5.80
2022-08-16T07:12:06.105Z,5.47
2022-08-16T07:14:36.925Z,4.95
2022-08-16T07:17:11.325Z,5.10
2022-08-16T07:20:03.214Z,5.90
2022-08-16T07:22:37.345Z,5.30
2022-08-16T07:25:25.645Z,5.20
2022-08-16T07:27:55.849Z,4.95
2022-08-16T07:30:39.396Z,5.07
2022-08-16T07:33:20.300Z,5.70
2022-08-16T07:36:10.384Z,6.35
2022-08-16T07:38:40.716Z,5.25
2022-08-16T07:41:13.786Z,5.60
2022-08-16T07:43:47.494Z,5.50
2022-08-16T07:49:11.251Z,5.05
2022-08-16T07:51:42.446Z,5.65
2022-08-16T07:54:21.262Z,5.55
2022-08-16T07:56:53.116Z,6.20
2022-08-16T07:59:24.971Z,6.50
2022-08-16T08:02:13.229Z,6.00
2022-08-16T08:04:51.216Z,6.28
2022-08-16T08:07:21.585Z,6.00
2022-08-16T08:12:43.705Z,5.80
2022-08-16T08:15:14.826Z,5.70
2022-08-16T08:17:55.606Z,6.20
2022-08-16T08:20:33.837Z,6.20
2022-08-16T08:23:04.993Z,5.85
2022-08-16T08:25:53.947Z,5.90
2022-08-16T08:28:26.762Z,6.38
2022-08-16T08:33:33.977Z,6.13
2022-08-16T08:36:08.855Z,6.40
2022-08-16T08:38:45.188Z,5.78
2022-08-16T08:41:19.045Z,6.00
2022-08-16T08:43:51.468Z,5.68
2022-08-16T08:46:22.566Z,5.57
2022-08-16T08:48:59.584Z,5.80
2022-08-16T08:51:36.821Z,6.18
2022-08-16T08:54:09.738Z,6.05
2022-08-16T08:56:45.403Z,5.68
2022-08-16T08:59:20.456Z,5.57
2022-08-16T09:01:57.208Z,5.22
2022-08-16T09:04:30.149Z,5.50
2022-08-16T09:07:01.232Z,5.57
2022-08-16T09:09:33.610Z,5.80
2022-08-16T09:12:06.939Z,5.55
2022-08-16T09:14:49.317Z,5.75
2022-08-16T09:17:38.275Z,5.82
2022-08-16T09:20:16.584Z,5.85
2022-08-16T09:22:51.337Z,6.15
2022-08-16T09:25:26.357Z,5.78
2022-08-16T09:28:09.412Z,5.25
2022-08-16T09:30:44.053Z,5.43
2022-08-16T09:33:20.056Z,5.00
2022-08-16T09:35:54.366Z,5.75
2022-08-16T09:38:31.902Z,5.20
2022-08-16T09:41:06.482Z,5.65
2022-08-16T09:43:59.519Z,4.75
2022-08-16T09:46:45.306Z,4.90
2022-08-16T09:49:20.313Z,4.80
2022-08-16T09:53:43.253Z,5.13
2022-08-16T09:56:26.709Z,4.60
2022-08-16T09:59:03.591Z,4.75
2022-08-16T10:01:36.752Z,4.55
2022-08-16T10:04:32.975Z,4.28
2022-08-16T10:09:54.080Z,3.85
2022-08-16T10:12:45.965Z,3.70
2022-08-16T10:15:21.614Z,3.70
2022-08-16T10:18:00.196Z,3.50
2022-08-16T10:20:35.262Z,3.28
2022-08-16T10:23:08.416Z,3.53
2022-08-16T10:27:18.631Z,3.90
2022-08-16T10:28:40.345Z,3.67
2022-08-16T10:31:16.719Z,3.63
2022-08-16T10:36:55.207Z,3.22
2022-08-16T10:39:25.382Z,3.03
2022-08-16T10:41:57.105Z,3.45
2022-08-16T10:44:29.206Z,3.70
2022-08-16T10:46:59.483Z,3.47
2022-08-16T10:49:32.709Z,3.45
2022-08-16T10:52:18.027Z,3.65
2022-08-16T10:57:41.666Z,3.55
2022-08-16T11:00:22.525Z,3.10
2022-08-16T11:02:58.304Z,3.22
2022-08-16T11:05:59.061Z,3.53
2022-08-16T11:08:35.916Z,3.25
2022-08-16T11:11:16.912Z,2.63
2022-08-16T11:14:11.087Z,2.50
2022-08-16T11:19:33.597Z,2.92
2022-08-16T11:22:47.268Z,2.55
2022-08-16T11:25:59.617Z,2.70
2022-08-16T11:28:06.164Z,1.77
2022-08-16T11:30:39.618Z,2.20
2022-08-16T11:33:11.463Z,2.78
2022-08-16T11:35:44.097Z,2.78
2022-08-16T11:38:47.665Z,2.53
2022-08-16T11:41:07.621Z,3.00
2022-08-16T11:43:42.105Z,2.70
2022-08-16T11:46:43.639Z,2.53
2022-08-16T11:49:13.449Z,2.42
2022-08-16T11:51:45.902Z,2.58
2022-08-16T11:54:20.452Z,2.70
2022-08-16T11:56:57.304Z,2.60
2022-08-16T11:59:29.696Z,2.55
2022-08-16T12:02:11.570Z,2.70
2022-08-16T12:04:52.162Z,2.60
2022-08-16T12:07:24.940Z,2.70
2022-08-16T12:12:28.507Z,2.73
2022-08-16T12:15:00.071Z,3.30
2022-08-16T12:17:33.368Z,3.20
2022-08-16T12:20:07.602Z,2.85
2022-08-16T12:22:38.463Z,2.70
2022-08-16T12:25:12.421Z,2.75
2022-08-16T12:27:43.105Z,2.67
2022-08-16T12:30:26.464Z,2.50
2022-08-16T12:33:04.266Z,3.00
2022-08-16T12:35:38.844Z,3.08
2022-08-16T12:38:40.767Z,2.65
2022-08-16T12:41:00.530Z,2.45
2022-08-16T12:43:31.984Z,2.78
2022-08-16T12:46:02.291Z,2.80
2022-08-16T12:48:53.661Z,3.03
2022-08-16T12:53:42.222Z,2.80
2022-08-16T12:56:14.102Z,3.15
2022-08-16T12:58:50.560Z,3.03
2022-08-16T13:01:25.038Z,3.05
2022-08-16T13:04:11.428Z,3.05
2022-08-16T13:06:44.674Z,2.97
2022-08-16T13:09:23.651Z,3.17
2022-08-16T13:12:03.489Z,2.30
2022-08-16T13:14:38.485Z,2.40
2022-08-16T13:17:18.784Z,2.08
2022-08-16T13:22:42.839Z,2.20
2022-08-16T13:25:21.295Z,1.85
2022-08-16T13:28:02.368Z,2.00
2022-08-16T13:30:41.075Z,2.80
2022-08-16T13:33:16.484Z,2.30
2022-08-16T13:35:56.245Z,2.20
2022-08-16T13:38:32.677Z,1.77
2022-08-16T13:41:11.305Z,2.30
2022-08-16T13:43:43.522Z,2.47
2022-08-16T13:46:13.706Z,2.23
2022-08-16T13:48:45.131Z,2.42
2022-08-16T13:51:17.532Z,2.78
2022-08-16T13:53:54.506Z,2.72
2022-08-16T13:56:37.923Z,3.30
2022-08-16T13:59:19.530Z,3.05
2022-08-16T14:01:55.079Z,3.22
2022-08-16T14:04:31.556Z,3.15
2022-08-16T14:07:03.874Z,3.17
2022-08-16T14:09:36.885Z,3.47
2022-08-16T14:12:21.285Z,3.22
2022-08-16T14:14:56.334Z,2.42
2022-08-16T14:17:29.866Z,2.80
2022-08-16T14:20:14.476Z,3.25
2022-08-16T14:22:52.383Z,3.30
2022-08-16T14:25:26.831Z,3.30
2022-08-16T14:27:58.841Z,3.03
2022-08-16T14:30:29.797Z,2.92
2022-08-16T14:33:00.494Z,3.25
2022-08-16T14:35:48.504Z,3.58
2022-08-16T14:38:23.928Z,3.47
2022-08-16T14:40:54.959Z,3.17
2022-08-16T14:43:29.762Z,3.60
2022-08-16T14:46:01.244Z,3.08
2022-08-16T14:48:31.949Z,3.37
2022-08-16T14:51:03.227Z,3.38
2022-08-16T14:53:33.321Z,3.30
2022-08-16T14:56:03.415Z,3.30
2022-08-16T14:58:38.064Z,2.85
2022-08-16T15:01:09.715Z,3.05
2022-08-16T15:03:44.454Z,3.47
2022-08-16T15:06:16.277Z,2.90
2022-08-16T15:08:46.868Z,2.47
2022-08-16T15:11:16.843Z,2.85
2022-08-16T15:13:49.430Z,2.60
2022-08-16T15:16:21.606Z,2.70
2022-08-16T15:19:00.051Z,2.88
2022-08-16T15:21:31.547Z,2.38
2022-08-16T15:24:02.449Z,2.63
2022-08-16T15:26:45.303Z,2.80
2022-08-16T15:29:19.267Z,3.17
2022-08-16T15:31:49.466Z,2.40
2022-08-16T15:37:03.182Z,2.50
2022-08-16T15:39:39.401Z,2.28
2022-08-16T15:42:15.631Z,2.25
2022-08-16T15:44:59.152Z,2.55
2022-08-16T15:47:29.244Z,2.08
2022-08-16T15:49:59.584Z,2.22
2022-08-16T15:53:41.948Z,2.60
2022-08-16T15:56:13.385Z,3.72
2022-08-16T15:58:43.911Z,2.95
2022-08-16T16:01:21.764Z,3.25
2022-08-16T16:03:53.985Z,3.58
2022-08-16T16:06:28.825Z,4.40
2022-08-16T16:09:00.706Z,4.45
2022-08-16T16:14:01.664Z,4.70
2022-08-16T16:16:36.290Z,4.75
2022-08-16T16:19:06.542Z,4.60
2022-08-16T16:21:37.633Z,4.63
2022-08-16T16:24:21.544Z,4.37
2022-08-16T16:26:55.187Z,4.53
2022-08-16T16:29:26.342Z,5.03
2022-08-16T16:31:59.490Z,4.80
2022-08-16T16:34:32.137Z,4.97
2022-08-16T16:37:03.562Z,5.20
2022-08-16T16:39:35.996Z,4.88
2022-08-16T16:42:06.422Z,4.50
2022-08-16T16:44:40.984Z,4.30
2022-08-16T16:47:21.201Z,4.43
2022-08-16T16:49:51.245Z,4.70
2022-08-16T16:52:43.367Z,4.40
2022-08-16T16:55:16.903Z,4.53
2022-08-16T16:58:04.021Z,4.22
2022-08-16T17:00:38.626Z,3.97
2022-08-16T17:03:17.050Z,4.97
2022-08-16T17:05:57.348Z,4.13
2022-08-16T17:08:31.085Z,4.28
2022-08-16T17:11:03.008Z,4.28
2022-08-16T17:13:34.810Z,3.50
2022-08-16T17:16:05.226Z,3.63
2022-08-16T17:19:16.626Z,3.78
2022-08-16T17:21:26.301Z,3.90
2022-08-16T17:24:00.495Z,3.58
2022-08-16T17:26:34.304Z,3.95
2022-08-16T17:29:11.124Z,4.00
2022-08-16T17:34:32.024Z,3.30
2022-08-16T17:37:08.038Z,4.05
2022-08-16T17:39:27.057Z,3.80
2022-08-16T17:39:54.794Z,3.78
2022-08-16T17:42:31.043Z,3.42
2022-08-16T17:45:01.570Z,4.18
2022-08-16T17:47:31.602Z,4.43
2022-08-16T17:50:02.407Z,5.15
2022-08-16T17:52:32.584Z,5.05
2022-08-16T17:55:08.656Z,4.72
2022-08-16T17:57:40.168Z,4.55
2022-08-16T18:00:18.280Z,4.65
2022-08-16T18:02:52.705Z,5.47
2022-08-16T18:05:23.144Z,3.95
2022-08-16T18:07:53.927Z,4.78
2022-08-16T18:10:32.761Z,3.80
2022-08-16T18:13:05.268Z,4.60
2022-08-16T18:15:38.162Z,4.53
2022-08-16T18:18:08.980Z,4.10
2022-08-16T18:20:56.254Z,4.50
2022-08-16T18:23:29.128Z,4.30
2022-08-16T18:26:01.545Z,4.78
2022-08-16T18:28:35.485Z,4.65
2022-08-16T18:31:08.006Z,3.95
2022-08-16T18:33:43.530Z,4.40
2022-08-16T18:36:20.893Z,4.63
2022-08-16T18:38:52.288Z,4.30
2022-08-16T18:41:24.687Z,4.40
2022-08-16T18:44:25.443Z,4.20
2022-08-16T18:46:50.997Z,4.13
2022-08-16T18:49:22.442Z,3.88
2022-08-16T18:53:41.388Z,4.30
2022-08-16T18:56:11.724Z,4.28
2022-08-16T18:58:42.657Z,4.25
2022-08-16T19:01:12.874Z,4.20
2022-08-16T19:03:43.165Z,4.05
2022-08-16T19:06:17.407Z,4.30
2022-08-16T19:08:49.071Z,4.70
2022-08-16T19:11:23.749Z,4.43
2022-08-16T19:13:54.132Z,4.05
2022-08-16T19:16:24.691Z,4.10
2022-08-16T19:18:54.683Z,4.20
2022-08-16T19:21:24.834Z,4.50
2022-08-16T19:23:56.738Z,3.85
2022-08-16T19:26:27.946Z,4.03
2022-08-16T19:28:59.846Z,4.37
2022-08-16T19:31:37.135Z,3.80
2022-08-16T19:34:08.714Z,4.45
2022-08-16T19:36:41.282Z,5.25
2022-08-16T19:39:17.182Z,4.43
2022-08-16T19:41:52.105Z,4.18
2022-08-16T19:44:24.746Z,4.53
2022-08-16T19:46:55.210Z,4.72
2022-08-16T19:49:25.374Z,4.35
2022-08-16T19:51:55.594Z,4.38
2022-08-16T19:54:27.224Z,4.30
2022-08-16T19:56:57.387Z,4.22
2022-08-16T19:59:40.407Z,4.55
2022-08-16T20:02:35.664Z,3.97
2022-08-16T20:05:08.405Z,4.38
2022-08-16T20:07:38.484Z,5.03
2022-08-16T20:10:11.947Z,4.43
2022-08-16T20:12:42.003Z,4.60
2022-08-16T20:15:16.567Z,4.18
2022-08-16T20:17:48.695Z,4.80
2022-08-16T20:20:23.348Z,4.95
2022-08-16T20:22:57.944Z,4.13
2022-08-16T20:25:33.411Z,4.22
2022-08-16T20:28:11.543Z,4.70
2022-08-16T20:31:02.767Z,4.15
2022-08-16T20:33:32.832Z,4.72
2022-08-16T20:36:02.855Z,4.70
2022-08-16T20:38:35.724Z,4.80
2022-08-16T20:41:07.484Z,4.45
2022-08-16T20:43:37.836Z,4.55
2022-08-16T20:46:08.430Z,4.32
2022-08-16T20:48:38.486Z,4.82
2022-08-16T20:51:10.918Z,4.85
2022-08-16T20:53:41.865Z,4.57
2022-08-16T20:56:14.309Z,4.43
2022-08-16T20:58:44.464Z,4.45
2022-08-16T21:01:14.448Z,4.63
2022-08-16T21:03:45.031Z,4.13
2022-08-16T21:06:16.512Z,4.30
2022-08-16T21:08:51.636Z,4.80
2022-08-16T21:11:28.491Z,4.07
2022-08-16T21:14:00.781Z,4.50
2022-08-16T21:16:32.607Z,3.95
2022-08-16T21:19:02.949Z,4.55
2022-08-16T21:21:33.758Z,4.55
2022-08-16T21:24:04.939Z,4.37
2022-08-16T21:26:39.039Z,4.47
2022-08-16T21:29:14.207Z,4.35
2022-08-16T21:31:47.455Z,4.93
2022-08-16T21:34:17.716Z,4.30
2022-08-16T21:36:49.111Z,4.43
2022-08-16T21:39:19.610Z,4.80
2022-08-16T21:41:51.356Z,4.20
2022-08-16T21:44:21.586Z,4.15
2022-08-16T21:46:52.134Z,4.95
2022-08-16T21:49:22.503Z,4.63
2022-08-16T21:53:42.158Z,4.15
2022-08-16T21:56:16.774Z,5.22
2022-08-16T21:58:52.976Z,4.60
2022-08-16T22:01:24.842Z,4.25
2022-08-16T22:04:01.619Z,4.50
2022-08-16T22:06:48.288Z,4.30
2022-08-16T22:09:24.603Z,4.53
2022-08-16T22:11:54.630Z,4.75
2022-08-16T22:14:24.765Z,4.78
2022-08-16T22:16:55.971Z,4.72
2022-08-16T22:19:26.665Z,4.90
2022-08-16T22:21:57.070Z,5.00
2022-08-16T22:24:28.605Z,4.40
2022-08-16T22:26:58.609Z,4.50
2022-08-16T22:29:28.761Z,5.32
2022-08-16T22:31:59.068Z,4.35
2022-08-16T22:34:29.148Z,5.55
2022-08-16T22:36:59.356Z,4.88
2022-08-16T22:39:31.866Z,4.55
2022-08-16T22:42:08.936Z,4.47
2022-08-16T22:44:45.663Z,4.40
2022-08-16T22:47:16.346Z,5.10
2022-08-16T22:49:48.328Z,4.70
2022-08-16T22:52:40.983Z,4.72
2022-08-16T22:55:11.224Z,5.15
2022-08-16T22:57:41.147Z,4.45
2022-08-16T23:00:16.191Z,5.10
2022-08-16T23:03:03.195Z,4.90
2022-08-16T23:05:39.266Z,5.13
2022-08-16T23:08:12.723Z,4.93
2022-08-16T23:10:45.468Z,4.38
2022-08-16T23:13:17.428Z,4.80
2022-08-16T23:15:52.142Z,4.75
2022-08-16T23:18:26.816Z,4.55
2022-08-16T23:21:00.694Z,4.82
2022-08-16T23:23:31.713Z,5.25
2022-08-16T23:26:44.188Z,5.00
2022-08-16T23:28:53.509Z,5.22
2022-08-16T23:31:24.075Z,4.88
2022-08-16T23:33:54.206Z,5.10
2022-08-16T23:36:24.283Z,5.13
2022-08-16T23:38:54.353Z,5.47
2022-08-16T23:41:25.927Z,4.97
2022-08-16T23:43:55.906Z,5.03
2022-08-16T23:46:25.985Z,5.32
2022-08-16T23:50:00.233Z,4.75
2022-08-16T23:51:46.083Z,4.97
2022-08-16T23:54:16.006Z,4.90
2022-08-16T23:56:47.857Z,4.78
2022-08-16T23:59:18.064Z,5.25
